This is the latest recevied weather packets stored in our database for station/object VK3HUG-13. If no packets are shown the sender has not sent any weather packets the latest 10 day(s).
| Time | Temp. | Humidity | Pressure | Rain* | Wind** | Luminosity | Snow |
|---|---|---|---|---|---|---|---|
| 1787997606 | 47° F | 87% | 776.7 mmHg | 0 in | - | - | - |
| 1787996707 | 49° F | 85% | 776.6 mmHg | 0 in | - | - | - |
| 1787994907 | 49° F | 85% | 775.8 mmHg | 0 in | - | - | - |
| 1787994007 | 48° F | 84% | 775.9 mmHg | 0 in | - | - | - |
| 1787993106 | 47° F | 82% | 775.9 mmHg | 0 in | - | - | - |
| 1787977806 | 54° F | 68% | 775.5 mmHg | 0 in | - | - | - |
| 1787976906 | - | - | 775.2 mmHg | - | - | - | - |
| 1787959807 | 49° F | 72% | 776.6 mmHg | 0 in | - | - | - |
| 1787958907 | 47° F | 76% | 777.4 mmHg | 0 in | - | - | - |
| 1787958006 | 47° F | 78% | 777.4 mmHg | 0 in | - | - | - |
| 1787951707 | 44° F | 98% | 776.1 mmHg | 0 in | - | - | - |
| 1787945408 | 42° F | 3% | 776.2 mmHg | 0 in | - | - | - |
| 1787937307 | 44° F | 2% | 775.3 mmHg | 0 in | - | - | - |
| 1787935507 | 46° F | 2% | 775.2 mmHg | 0 in | - | - | - |
| 1787934607 | 46° F | 1% | 775.2 mmHg | 0 in | - | - | - |
| 1787933706 | 46° F | 1% | 775.2 mmHg | 0 in | - | - | - |
| 1787932807 | 47° F | 1% | 775.2 mmHg | 0 in | - | - | - |
| 1787927407 | 47° F | 1% | 775.2 mmHg | 0 in | - | - | - |
| 1787925607 | 44° F | 1% | 775.3 mmHg | 0 in | - | - | - |
| 1787922906 | 44° F | 100% | 775.3 mmHg | 0 in | - | - | - |
| 1787919306 | 45° F | 100% | 775.3 mmHg | 0 in | - | - | - |
| 1787916607 | 45° F | 99% | 775.3 mmHg | 0 in | - | - | - |
| 1787906708 | 50° F | 98% | 774.2 mmHg | 0 in | - | - | - |
| 1787905806 | 50° F | 97% | 774.1 mmHg | 0 in | - | - | - |
| 1787870706 | 60° F | 61% | 772.8 mmHg | 0 in | - | - | - |
* Rain latest hour (hover to see other rain measurements)
** Current wind speed in m/s (hover to see current wind gust speed)